Waco Regional Airport
KACT : rendu visible

Aérodrome :











RETROUVEZ-NOUS SUR...

 
LOGIN :

S'inscrire | Disclaimer

   EN    FR    IT 

 









Légende :    VFR   VFR Marginal   IFR   IFR Intensif   IFR Très Intensif
Visi : 
Plafond : 
>= 8 km
>= 3000ft
5 à 8 km
1000 à 3000 ft
1500m à 5 km
500 à 1000 ft
800 à 1500m
200 à 500 ft
< 800m
< 200 ft
Symboles :   Orages  Brouillard  Fortes neiges  Fortes précipitations  Vent > 20 kt






- Altitude de l'aérodrome : 516 ft
- Code IATA : ACT


KACT - Waco Regional

DERNIER METAR :
  • 081151Z 19008KT 4SM BR CLR 22/21 A2985 RMK AO2 SLP102 7//// T02220211 10244 20217 53007

METARs EXPIRÉS :
  • 081051Z AUTO 18007KT 4SM BR CLR 22/21 A2984 RMK AO2 SLP096 T02170206
  • 080951Z AUTO 18006KT 6SM BR CLR 23/21 A2984 RMK AO2 SLP096 T02280211

TAF KACT
Valide du 08 à 12h jusqu'au 09 à 12h UTC


081125Z 0812/0912 21006KT P6SM BKN250
FM082000 26010KT P6SM VCTS BKN100CB
FM082300 26009KT P6SM BKN100
FM091100 33010KT P6SM BKN100



MET'MAP, la Météo Aéronautique d'un coup d'oeil ! - Copyright ORBIFLY Décembre 2007 - Disclaimer

ORBIFLY MET'MAP TEAM :

Programmation & Développement : Alexandra Zaïnal
Sur une idée originale de : Baudouin d'Aumeries
Assistance à la programmation : Marc-Olivier Méhu
Soutien technique & logistique : Manuel Goepfert

Contact : metmap@orbifly.com




SOURCES & CREDITS :

   NOAA       Earth
Advisory